NUA588 DNMM-DNAA
Flight info
| Callsign | NUA588 |
|---|---|
| Flight time | 0h 51m |
| Altitude | 37000 |
| Route | IBA1Q IBA UR778 KELIG UW951 MESES MESES1N |
| Aircraft | A332/H-SDE3GHIJ2J3J5M1RVWXY/LB2D1 |
Departure
| Time | 2026-05-06 13:43 |
|---|---|
| Airport | Murtala Muhammed International Airport (DNMM) |
Arrival
| Time | 2026-05-06 14:35 |
|---|---|
| Airport | Nnamdi Azikiwe International Airport (DNAA) |
| Time | Latitude | Longitude | Altitude | Speed | Heading |
|---|---|---|---|---|---|
| 2026-05-06 13:30 | 6.58006 | 3.31916 | 98 ft | 0 kts | 66° |
| 2026-05-06 13:36 | 6.58003 | 3.31911 | 100 ft | 4 kts | 66° |
| 2026-05-06 13:36 | 6.57992 | 3.31885 | 97 ft | 4 kts | 66° |
| 2026-05-06 13:37 | 6.57981 | 3.31860 | 99 ft | 4 kts | 66° |
| 2026-05-06 13:37 | 6.57972 | 3.31836 | 97 ft | 1 kts | 38° |
| 2026-05-06 13:37 | 6.57962 | 3.31834 | 97 ft | 0 kts | 331° |
| 2026-05-06 13:39 | 6.57964 | 3.31833 | 98 ft | 1 kts | 331° |
| 2026-05-06 13:39 | 6.57995 | 3.31819 | 100 ft | 9 kts | 336° |
| 2026-05-06 13:39 | 6.58071 | 3.31784 | 99 ft | 15 kts | 330° |
| 2026-05-06 13:40 | 6.58094 | 3.31673 | 89 ft | 24 kts | 249° |
| 2026-05-06 13:40 | 6.58073 | 3.31531 | 65 ft | 3 kts | 299° |
| 2026-05-06 13:40 | 6.58078 | 3.31528 | 66 ft | 2 kts | 324° |
| 2026-05-06 13:40 | 6.58101 | 3.31528 | 64 ft | 6 kts | 359° |
| 2026-05-06 13:41 | 6.58162 | 3.31527 | 60 ft | 12 kts | 359° |
| 2026-05-06 13:41 | 6.58260 | 3.31525 | 68 ft | 17 kts | 358° |
| 2026-05-06 13:41 | 6.58388 | 3.31525 | 64 ft | 21 kts | 360° |
| 2026-05-06 13:41 | 6.58546 | 3.31524 | 66 ft | 25 kts | 359° |
| 2026-05-06 13:42 | 6.58732 | 3.31517 | 71 ft | 27 kts | 351° |
| 2026-05-06 13:42 | 6.58811 | 3.31409 | 72 ft | 21 kts | 266° |
| 2026-05-06 13:42 | 6.58709 | 3.31325 | 70 ft | 21 kts | 194° |
| 2026-05-06 13:42 | 6.58510 | 3.31317 | 66 ft | 50 kts | 180° |
| 2026-05-06 13:43 | 6.57935 | 3.31324 | 59 ft | 115 kts | 179° |
| 2026-05-06 13:43 | 6.56951 | 3.31337 | 123 ft | 161 kts | 179° |
| 2026-05-06 13:43 | 6.55802 | 3.31327 | 746 ft | 165 kts | 180° |
| 2026-05-06 13:43 | 6.54651 | 3.31342 | 1442 ft | 176 kts | 178° |
| 2026-05-06 13:44 | 6.53331 | 3.31283 | 1902 ft | 200 kts | 191° |
| 2026-05-06 13:44 | 6.52100 | 3.30611 | 2579 ft | 208 kts | 228° |
| 2026-05-06 13:44 | 6.51513 | 3.29293 | 3429 ft | 209 kts | 261° |
| 2026-05-06 13:44 | 6.51423 | 3.27831 | 4287 ft | 211 kts | 269° |
| 2026-05-06 13:45 | 6.51427 | 3.26351 | 5074 ft | 216 kts | 270° |
| 2026-05-06 13:45 | 6.52479 | 3.23577 | 6692 ft | 225 kts | 320° |
| 2026-05-06 13:45 | 6.53958 | 3.22927 | 7137 ft | 248 kts | 351° |
| 2026-05-06 13:46 | 6.55777 | 3.22821 | 7487 ft | 274 kts | 360° |
| 2026-05-06 13:46 | 6.57715 | 3.22838 | 8128 ft | 286 kts | 1° |
| 2026-05-06 13:46 | 6.59732 | 3.22852 | 8973 ft | 291 kts | 0° |
| 2026-05-06 13:46 | 6.61758 | 3.22854 | 9806 ft | 295 kts | 2° |
| 2026-05-06 13:47 | 6.63827 | 3.23144 | 10436 ft | 308 kts | 17° |
| 2026-05-06 13:47 | 6.65799 | 3.24138 | 10796 ft | 327 kts | 38° |
| 2026-05-06 13:47 | 6.67504 | 3.25694 | 11326 ft | 338 kts | 45° |
| 2026-05-06 13:47 | 6.69168 | 3.27402 | 12069 ft | 343 kts | 47° |
| 2026-05-06 13:48 | 6.70831 | 3.29141 | 12898 ft | 346 kts | 47° |
| 2026-05-06 13:48 | 6.72492 | 3.30880 | 13614 ft | 351 kts | 47° |
| 2026-05-06 13:48 | 6.74202 | 3.32671 | 14292 ft | 357 kts | 47° |
| 2026-05-06 13:48 | 6.75946 | 3.34493 | 14931 ft | 363 kts | 47° |
| 2026-05-06 13:49 | 6.77713 | 3.36338 | 15581 ft | 367 kts | 47° |
| 2026-05-06 13:49 | 6.79487 | 3.38188 | 16216 ft | 372 kts | 47° |
| 2026-05-06 13:49 | 6.81300 | 3.40080 | 16819 ft | 377 kts | 47° |
| 2026-05-06 13:49 | 6.83129 | 3.41990 | 17383 ft | 382 kts | 46° |
| 2026-05-06 13:50 | 6.84985 | 3.43927 | 17951 ft | 387 kts | 46° |
| 2026-05-06 13:50 | 6.86860 | 3.45882 | 18518 ft | 390 kts | 46° |
| 2026-05-06 13:50 | 6.88729 | 3.47833 | 19053 ft | 394 kts | 46° |
| 2026-05-06 13:50 | 6.90638 | 3.49826 | 19621 ft | 397 kts | 46° |
| 2026-05-06 13:51 | 6.92567 | 3.51841 | 20159 ft | 400 kts | 46° |
| 2026-05-06 13:51 | 6.94508 | 3.53869 | 20681 ft | 402 kts | 46° |
| 2026-05-06 13:51 | 6.96440 | 3.55887 | 21145 ft | 406 kts | 46° |
| 2026-05-06 13:51 | 6.98410 | 3.57946 | 21646 ft | 409 kts | 46° |
| 2026-05-06 13:52 | 7.00405 | 3.60029 | 22120 ft | 412 kts | 46° |
| 2026-05-06 13:52 | 7.02381 | 3.62095 | 22571 ft | 415 kts | 46° |
| 2026-05-06 13:52 | 7.04399 | 3.64204 | 23035 ft | 418 kts | 46° |
| 2026-05-06 13:52 | 7.06425 | 3.66321 | 23478 ft | 421 kts | 46° |
| 2026-05-06 13:53 | 7.08438 | 3.68425 | 23894 ft | 423 kts | 46° |
| 2026-05-06 13:53 | 7.10497 | 3.70578 | 24331 ft | 425 kts | 46° |
| 2026-05-06 13:53 | 7.12566 | 3.72741 | 24736 ft | 428 kts | 46° |
| 2026-05-06 13:53 | 7.14619 | 3.74887 | 25126 ft | 431 kts | 46° |
| 2026-05-06 13:54 | 7.16716 | 3.77081 | 25521 ft | 434 kts | 46° |
| 2026-05-06 13:54 | 7.18819 | 3.79281 | 25924 ft | 436 kts | 46° |
| 2026-05-06 13:54 | 7.20937 | 3.81496 | 26301 ft | 439 kts | 46° |
| 2026-05-06 13:54 | 7.23035 | 3.83692 | 26679 ft | 441 kts | 46° |
| 2026-05-06 13:55 | 7.24480 | 3.85204 | 26933 ft | 443 kts | 46° |
| 2026-05-06 13:55 | 7.26602 | 3.87425 | 27300 ft | 445 kts | 46° |
| 2026-05-06 13:55 | 7.29474 | 3.90431 | 27765 ft | 449 kts | 46° |
| 2026-05-06 13:55 | 7.30915 | 3.91940 | 27991 ft | 450 kts | 46° |
| 2026-05-06 13:56 | 7.33816 | 3.94978 | 28458 ft | 453 kts | 46° |
| 2026-05-06 13:56 | 7.35275 | 3.96505 | 28678 ft | 455 kts | 46° |
| 2026-05-06 13:56 | 7.38071 | 3.99688 | 29106 ft | 457 kts | 53° |
| 2026-05-06 13:56 | 7.39334 | 4.01409 | 29335 ft | 459 kts | 54° |
| 2026-05-06 13:57 | 7.41316 | 4.03936 | 29647 ft | 460 kts | 50° |
| 2026-05-06 13:57 | 7.43381 | 4.06447 | 29961 ft | 462 kts | 50° |
| 2026-05-06 13:57 | 7.45430 | 4.08910 | 30244 ft | 464 kts | 50° |
| 2026-05-06 13:57 | 7.47531 | 4.11402 | 30545 ft | 466 kts | 49° |
| 2026-05-06 13:58 | 7.49655 | 4.13894 | 30817 ft | 469 kts | 49° |
| 2026-05-06 13:58 | 7.51803 | 4.16398 | 31097 ft | 471 kts | 49° |
| 2026-05-06 13:58 | 7.53956 | 4.18899 | 31348 ft | 473 kts | 49° |
| 2026-05-06 13:58 | 7.56093 | 4.21378 | 31612 ft | 475 kts | 49° |
| 2026-05-06 13:59 | 7.58273 | 4.23910 | 31886 ft | 476 kts | 49° |
| 2026-05-06 13:59 | 7.60449 | 4.26437 | 32252 ft | 476 kts | 49° |
| 2026-05-06 13:59 | 7.62616 | 4.28956 | 32676 ft | 474 kts | 49° |
| 2026-05-06 13:59 | 7.64759 | 4.31448 | 33054 ft | 473 kts | 49° |
| 2026-05-06 14:00 | 7.66915 | 4.33955 | 33393 ft | 472 kts | 49° |
| 2026-05-06 14:00 | 7.69051 | 4.36440 | 33736 ft | 472 kts | 49° |
| 2026-05-06 14:00 | 7.71200 | 4.38939 | 34104 ft | 471 kts | 49° |
| 2026-05-06 14:00 | 7.73303 | 4.41492 | 34455 ft | 470 kts | 54° |
| 2026-05-06 14:01 | 7.75104 | 4.44248 | 34797 ft | 469 kts | 59° |
| 2026-05-06 14:01 | 7.76762 | 4.47044 | 35145 ft | 468 kts | 60° |
| 2026-05-06 14:01 | 7.78382 | 4.49887 | 35495 ft | 467 kts | 60° |
| 2026-05-06 14:01 | 7.79980 | 4.52751 | 35827 ft | 466 kts | 61° |
| 2026-05-06 14:02 | 7.81544 | 4.55582 | 36126 ft | 466 kts | 61° |
| 2026-05-06 14:02 | 7.83120 | 4.58439 | 36437 ft | 465 kts | 61° |
| 2026-05-06 14:02 | 7.84704 | 4.61301 | 36705 ft | 465 kts | 61° |
| 2026-05-06 14:02 | 7.86267 | 4.64119 | 36883 ft | 466 kts | 60° |
| 2026-05-06 14:03 | 7.89421 | 4.69776 | 36914 ft | 458 kts | 60° |
| 2026-05-06 14:03 | 7.92543 | 4.75371 | 36790 ft | 456 kts | 60° |
| 2026-05-06 14:04 | 7.94085 | 4.78139 | 36540 ft | 455 kts | 60° |
| 2026-05-06 14:04 | 7.95638 | 4.80919 | 36286 ft | 456 kts | 61° |
| 2026-05-06 14:04 | 7.97184 | 4.83695 | 36035 ft | 457 kts | 60° |
| 2026-05-06 14:04 | 7.98758 | 4.86515 | 35785 ft | 461 kts | 60° |
| 2026-05-06 14:05 | 8.00341 | 4.89357 | 35526 ft | 465 kts | 60° |
| 2026-05-06 14:05 | 8.01925 | 4.92206 | 35281 ft | 466 kts | 60° |
| 2026-05-06 14:05 | 8.03496 | 4.95034 | 35030 ft | 467 kts | 60° |
| 2026-05-06 14:05 | 8.05093 | 4.97906 | 34771 ft | 467 kts | 60° |
| 2026-05-06 14:06 | 8.06681 | 5.00762 | 34521 ft | 463 kts | 60° |
| 2026-05-06 14:06 | 8.08233 | 5.03554 | 34276 ft | 457 kts | 60° |
| 2026-05-06 14:06 | 8.09782 | 5.06339 | 34025 ft | 454 kts | 60° |
| 2026-05-06 14:06 | 8.11335 | 5.09132 | 33763 ft | 455 kts | 60° |
| 2026-05-06 14:07 | 8.12894 | 5.11938 | 33526 ft | 456 kts | 60° |
| 2026-05-06 14:07 | 8.14433 | 5.14705 | 33281 ft | 457 kts | 60° |
| 2026-05-06 14:07 | 8.15991 | 5.17511 | 33023 ft | 458 kts | 60° |
| 2026-05-06 14:07 | 8.17552 | 5.20321 | 32773 ft | 458 kts | 60° |
| 2026-05-06 14:08 | 8.19115 | 5.23134 | 32524 ft | 459 kts | 60° |
| 2026-05-06 14:08 | 8.20663 | 5.25921 | 32271 ft | 459 kts | 60° |
| 2026-05-06 14:08 | 8.22222 | 5.28730 | 32013 ft | 459 kts | 60° |
| 2026-05-06 14:08 | 8.23782 | 5.31539 | 31763 ft | 460 kts | 60° |
| 2026-05-06 14:09 | 8.25370 | 5.34400 | 31504 ft | 469 kts | 60° |
| 2026-05-06 14:09 | 8.26954 | 5.37254 | 31249 ft | 472 kts | 60° |
| 2026-05-06 14:09 | 8.28569 | 5.40165 | 30996 ft | 470 kts | 60° |
| 2026-05-06 14:09 | 8.30150 | 5.43017 | 30751 ft | 468 kts | 60° |
| 2026-05-06 14:10 | 8.31745 | 5.45893 | 30496 ft | 467 kts | 59° |
| 2026-05-06 14:10 | 8.33330 | 5.48754 | 30239 ft | 465 kts | 59° |
| 2026-05-06 14:10 | 8.34894 | 5.51574 | 29998 ft | 463 kts | 59° |
| 2026-05-06 14:10 | 8.36471 | 5.54420 | 29759 ft | 461 kts | 59° |
| 2026-05-06 14:11 | 8.38022 | 5.57220 | 29501 ft | 460 kts | 60° |
| 2026-05-06 14:11 | 8.39588 | 5.60048 | 29248 ft | 458 kts | 60° |
| 2026-05-06 14:11 | 8.41142 | 5.62854 | 28997 ft | 457 kts | 60° |
| 2026-05-06 14:11 | 8.42695 | 5.65659 | 28744 ft | 455 kts | 60° |
| 2026-05-06 14:12 | 8.44244 | 5.68457 | 28486 ft | 454 kts | 60° |
| 2026-05-06 14:12 | 8.45766 | 5.71204 | 28248 ft | 452 kts | 60° |
| 2026-05-06 14:12 | 8.47299 | 5.73974 | 27993 ft | 451 kts | 60° |
| 2026-05-06 14:12 | 8.48828 | 5.76738 | 27750 ft | 449 kts | 60° |
| 2026-05-06 14:13 | 8.50338 | 5.79469 | 27501 ft | 448 kts | 60° |
| 2026-05-06 14:13 | 8.51861 | 5.82225 | 27249 ft | 446 kts | 60° |
| 2026-05-06 14:13 | 8.53372 | 5.84957 | 26999 ft | 445 kts | 60° |
| 2026-05-06 14:13 | 8.54871 | 5.87669 | 25922 ft | 441 kts | 60° |
| 2026-05-06 14:14 | 8.56463 | 5.90532 | 23739 ft | 486 kts | 60° |
| 2026-05-06 14:14 | 8.58096 | 5.93473 | 23416 ft | 470 kts | 61° |
| 2026-05-06 14:14 | 8.59662 | 5.96318 | 23186 ft | 454 kts | 61° |
| 2026-05-06 14:14 | 8.61174 | 5.99062 | 22949 ft | 438 kts | 61° |
| 2026-05-06 14:15 | 8.62641 | 6.01724 | 22715 ft | 425 kts | 61° |
| 2026-05-06 14:15 | 8.64048 | 6.04275 | 22470 ft | 415 kts | 61° |
| 2026-05-06 14:15 | 8.65451 | 6.06822 | 22229 ft | 414 kts | 61° |
| 2026-05-06 14:15 | 8.66860 | 6.09377 | 21991 ft | 414 kts | 61° |
| 2026-05-06 14:16 | 8.68265 | 6.11920 | 21732 ft | 413 kts | 61° |
| 2026-05-06 14:16 | 8.69644 | 6.14419 | 21475 ft | 411 kts | 61° |
| 2026-05-06 14:16 | 8.71033 | 6.16939 | 21206 ft | 406 kts | 61° |
| 2026-05-06 14:16 | 8.72401 | 6.19419 | 20758 ft | 400 kts | 61° |
| 2026-05-06 14:17 | 8.73756 | 6.21875 | 20222 ft | 398 kts | 61° |
| 2026-05-06 14:17 | 8.75082 | 6.24281 | 19700 ft | 395 kts | 61° |
| 2026-05-06 14:17 | 8.76415 | 6.26701 | 19176 ft | 392 kts | 61° |
| 2026-05-06 14:17 | 8.77737 | 6.29100 | 18650 ft | 388 kts | 61° |
| 2026-05-06 14:18 | 8.79045 | 6.31475 | 18121 ft | 385 kts | 61° |
| 2026-05-06 14:18 | 8.80336 | 6.33817 | 17615 ft | 381 kts | 61° |
| 2026-05-06 14:18 | 8.81626 | 6.36158 | 17101 ft | 378 kts | 61° |
| 2026-05-06 14:18 | 8.82903 | 6.38478 | 16571 ft | 375 kts | 61° |
| 2026-05-06 14:19 | 8.84154 | 6.40752 | 16066 ft | 371 kts | 61° |
| 2026-05-06 14:19 | 8.85405 | 6.43031 | 15568 ft | 367 kts | 61° |
| 2026-05-06 14:19 | 8.86632 | 6.45259 | 15108 ft | 363 kts | 60° |
| 2026-05-06 14:19 | 8.88018 | 6.47416 | 14901 ft | 364 kts | 54° |
| 2026-05-06 14:20 | 8.89566 | 6.49449 | 14800 ft | 365 kts | 51° |
| 2026-05-06 14:20 | 8.91166 | 6.51389 | 14270 ft | 356 kts | 50° |
| 2026-05-06 14:20 | 8.92793 | 6.53284 | 13957 ft | 359 kts | 49° |
| 2026-05-06 14:20 | 8.94453 | 6.55202 | 13696 ft | 360 kts | 49° |
| 2026-05-06 14:21 | 8.96073 | 6.57085 | 13449 ft | 356 kts | 50° |
| 2026-05-06 14:21 | 8.97695 | 6.58989 | 13213 ft | 353 kts | 50° |
| 2026-05-06 14:21 | 8.99271 | 6.60857 | 12970 ft | 351 kts | 50° |
| 2026-05-06 14:21 | 9.00850 | 6.62742 | 12700 ft | 350 kts | 50° |
| 2026-05-06 14:22 | 9.02427 | 6.64631 | 12448 ft | 349 kts | 50° |
| 2026-05-06 14:22 | 9.03973 | 6.66486 | 12202 ft | 347 kts | 50° |
| 2026-05-06 14:22 | 9.05537 | 6.68366 | 11955 ft | 345 kts | 50° |
| 2026-05-06 14:22 | 9.07065 | 6.70201 | 11710 ft | 343 kts | 50° |
| 2026-05-06 14:23 | 9.08604 | 6.72048 | 11486 ft | 343 kts | 50° |
| 2026-05-06 14:23 | 9.10148 | 6.73899 | 11235 ft | 343 kts | 50° |
| 2026-05-06 14:23 | 9.11559 | 6.75834 | 11004 ft | 336 kts | 58° |
| 2026-05-06 14:23 | 9.12575 | 6.77851 | 10762 ft | 313 kts | 69° |
| 2026-05-06 14:24 | 9.13266 | 6.79891 | 10527 ft | 296 kts | 73° |
| 2026-05-06 14:24 | 9.13788 | 6.81865 | 10286 ft | 293 kts | 76° |
| 2026-05-06 14:24 | 9.14216 | 6.83881 | 10069 ft | 295 kts | 78° |
| 2026-05-06 14:24 | 9.14589 | 6.85935 | 9804 ft | 295 kts | 79° |
| 2026-05-06 14:25 | 9.14927 | 6.87966 | 9553 ft | 294 kts | 80° |
| 2026-05-06 14:25 | 9.15261 | 6.90017 | 9302 ft | 294 kts | 80° |
| 2026-05-06 14:25 | 9.15597 | 6.92065 | 9056 ft | 293 kts | 80° |
| 2026-05-06 14:25 | 9.15932 | 6.94082 | 8873 ft | 294 kts | 80° |
| 2026-05-06 14:26 | 9.16282 | 6.96127 | 8756 ft | 294 kts | 79° |
| 2026-05-06 14:26 | 9.16638 | 6.98167 | 8627 ft | 293 kts | 79° |
| 2026-05-06 14:26 | 9.16994 | 7.00197 | 8508 ft | 292 kts | 79° |
| 2026-05-06 14:26 | 9.17346 | 7.02205 | 8308 ft | 292 kts | 79° |
| 2026-05-06 14:27 | 9.17703 | 7.04228 | 8046 ft | 291 kts | 79° |
| 2026-05-06 14:27 | 9.18054 | 7.06246 | 7811 ft | 289 kts | 79° |
| 2026-05-06 14:27 | 9.18402 | 7.08245 | 7567 ft | 288 kts | 79° |
| 2026-05-06 14:27 | 9.18743 | 7.10222 | 7315 ft | 287 kts | 79° |
| 2026-05-06 14:28 | 9.19089 | 7.12220 | 7060 ft | 285 kts | 79° |
| 2026-05-06 14:28 | 9.19427 | 7.14181 | 6818 ft | 278 kts | 79° |
| 2026-05-06 14:28 | 9.19753 | 7.16064 | 6586 ft | 271 kts | 79° |
| 2026-05-06 14:28 | 9.20077 | 7.17927 | 6335 ft | 265 kts | 79° |
| 2026-05-06 14:29 | 9.20390 | 7.19738 | 6084 ft | 260 kts | 80° |
| 2026-05-06 14:29 | 9.20702 | 7.21543 | 5868 ft | 258 kts | 79° |
| 2026-05-06 14:29 | 9.21016 | 7.23347 | 5730 ft | 259 kts | 79° |
| 2026-05-06 14:29 | 9.21326 | 7.25116 | 5603 ft | 257 kts | 79° |
| 2026-05-06 14:30 | 9.21630 | 7.26862 | 5443 ft | 246 kts | 79° |
| 2026-05-06 14:30 | 9.21922 | 7.28562 | 5086 ft | 243 kts | 79° |
| 2026-05-06 14:30 | 9.22064 | 7.30223 | 4891 ft | 234 kts | 92° |
| 2026-05-06 14:30 | 9.21758 | 7.31799 | 4865 ft | 224 kts | 110° |
| 2026-05-06 14:31 | 9.21102 | 7.33210 | 4868 ft | 222 kts | 117° |
| 2026-05-06 14:31 | 9.20306 | 7.34548 | 4866 ft | 219 kts | 122° |
| 2026-05-06 14:31 | 9.19321 | 7.35707 | 4866 ft | 214 kts | 138° |
| 2026-05-06 14:31 | 9.18076 | 7.36482 | 4863 ft | 213 kts | 157° |
| 2026-05-06 14:32 | 9.16638 | 7.36783 | 4686 ft | 208 kts | 179° |
| 2026-05-06 14:32 | 9.15216 | 7.36527 | 4188 ft | 209 kts | 201° |
| 2026-05-06 14:32 | 9.13921 | 7.35880 | 3760 ft | 204 kts | 210° |
| 2026-05-06 14:32 | 9.12791 | 7.35130 | 3600 ft | 185 kts | 215° |
| 2026-05-06 14:33 | 9.11813 | 7.34397 | 3430 ft | 169 kts | 217° |
| 2026-05-06 14:33 | 9.10909 | 7.33689 | 3105 ft | 162 kts | 218° |
| 2026-05-06 14:33 | 9.10026 | 7.33000 | 2765 ft | 159 kts | 217° |
| 2026-05-06 14:33 | 9.09133 | 7.32340 | 2401 ft | 157 kts | 215° |
| 2026-05-06 14:34 | 9.08274 | 7.31704 | 2155 ft | 149 kts | 217° |
| 2026-05-06 14:34 | 9.07480 | 7.31083 | 1878 ft | 144 kts | 218° |
| 2026-05-06 14:34 | 9.06697 | 7.30531 | 1723 ft | 128 kts | 213° |
| 2026-05-06 14:34 | 9.06040 | 7.30031 | 1639 ft | 108 kts | 218° |
| 2026-05-06 14:35 | 9.05404 | 7.29617 | 1332 ft | 105 kts | 212° |
| 2026-05-06 14:35 | 9.05112 | 7.29348 | 1172 ft | 8 kts | 62° |
| 2026-05-06 14:35 | 9.05115 | 7.29354 | 1174 ft | 0 kts | 62° |